Time;durP1;ratioP1;P1;durP2;ratioP2;P2;SDS_P1;SDS_P2;PMS_P1;PMS_P2;Temp;Humidity;BMP_temperature;BMP_pressure;BME280_temperature;BME280_humidity;BME280_pressure;Samples;Min_cycle;Max_cycle;Signal;HPM_P1;HPM_P2
2023/09/03 00:00:58;;;;;;;;;;;23.40;51.30;;;;;;4991867;28;88645;-51
2023/09/03 00:03:23;;;;;;;;;;;23.40;51.40;;;;;;4992810;28;87680;-50
2023/09/03 00:05:50;;;;;;;;;;;23.40;51.40;;;;;;4990281;28;87010;-50
2023/09/03 00:08:15;;;;;;;;;;;23.40;51.30;;;;;;4991021;28;89614;-55
2023/09/03 00:10:41;;;;;;;;;;;23.40;51.40;;;;;;4993287;28;87396;-51
2023/09/03 00:13:07;;;;;;;;;;;23.40;51.40;;;;;;4992641;28;88255;-49
2023/09/03 00:15:32;;;;;;;;;;;23.40;51.40;;;;;;4991311;28;87111;-50
2023/09/03 00:17:58;;;;;;;;;;;23.40;51.40;;;;;;4989856;28;88639;-51
2023/09/03 00:20:24;;;;;;;;;;;23.30;51.40;;;;;;4990137;28;88230;-51
2023/09/03 00:22:49;;;;;;;;;;;23.30;51.30;;;;;;4991684;28;87170;-49
2023/09/03 00:25:15;;;;;;;;;;;23.30;51.40;;;;;;4992231;28;88003;-49
2023/09/03 00:27:40;;;;;;;;;;;23.30;51.50;;;;;;4989826;28;89477;-52
2023/09/03 00:30:06;;;;;;;;;;;23.30;51.40;;;;;;4991712;28;87223;-55
2023/09/03 00:32:31;;;;;;;;;;;23.30;52.00;;;;;;4995257;28;87491;-48
2023/09/03 00:34:58;;;;;;;;;;;23.30;51.40;;;;;;4989894;28;86555;-48
2023/09/03 00:37:24;;;;;;;;;;;23.20;51.40;;;;;;4991225;28;88294;-49
2023/09/03 00:39:49;;;;;;;;;;;23.20;51.40;;;;;;4989921;28;88371;-53
2023/09/03 00:42:15;;;;;;;;;;;23.20;51.40;;;;;;4996094;28;88116;-51
2023/09/03 00:44:40;;;;;;;;;;;23.20;51.50;;;;;;4994495;28;88842;-49
2023/09/03 00:47:07;;;;;;;;;;;23.10;51.40;;;;;;4995776;28;88611;-51
2023/09/03 00:49:32;;;;;;;;;;;23.20;51.50;;;;;;4995088;28;87132;-54
2023/09/03 00:51:58;;;;;;;;;;;23.20;51.60;;;;;;4994641;28;87530;-52
2023/09/03 00:54:23;;;;;;;;;;;23.10;51.50;;;;;;4998362;28;88217;-53
2023/09/03 00:56:49;;;;;;;;;;;23.10;51.50;;;;;;4994844;28;87957;-50
2023/09/03 00:59:15;;;;;;;;;;;23.10;51.40;;;;;;4994432;28;87271;-52
2023/09/03 01:01:42;;;;;;;;;;;23.10;51.50;;;;;;4995246;28;87585;-54
2023/09/03 01:04:07;;;;;;;;;;;23.10;51.50;;;;;;4993580;28;88131;-51
2023/09/03 01:06:33;;;;;;;;;;;23.00;51.50;;;;;;4992713;28;89546;-53
2023/09/03 01:08:58;;;;;;;;;;;23.10;51.50;;;;;;4993035;28;87115;-51
2023/09/03 01:11:28;;;;;;;;;;;23.00;51.50;;;;;;4995005;28;87636;-51
2023/09/03 01:14:02;;;;;;;;;;;23.10;51.60;;;;;;4997618;28;87424;-51
2023/09/03 01:16:31;;;;;;;;;;;23.00;51.50;;;;;;4993880;28;87132;-52
2023/09/03 01:18:59;;;;;;;;;;;23.00;51.50;;;;;;4992498;28;88254;-51
2023/09/03 01:21:28;;;;;;;;;;;23.00;51.50;;;;;;4993110;28;87171;-48
2023/09/03 01:23:59;;;;;;;;;;;23.00;51.50;;;;;;4996007;28;87807;-53
2023/09/03 01:26:43;;;;;;;;;;;23.00;51.50;;;;;;4993380;28;87507;-51
2023/09/03 01:29:09;;;;;;;;;;;23.00;51.50;;;;;;4991659;28;87235;-51
2023/09/03 01:31:35;;;;;;;;;;;23.00;51.50;;;;;;4993017;28;88013;-50
2023/09/03 01:34:03;;;;;;;;;;;23.00;51.60;;;;;;4994985;28;88397;-56
2023/09/03 01:36:30;;;;;;;;;;;23.00;51.60;;;;;;4994352;28;87349;-53
2023/09/03 01:38:57;;;;;;;;;;;22.90;51.50;;;;;;4994504;28;88242;-49
2023/09/03 01:41:23;;;;;;;;;;;22.90;51.50;;;;;;4993242;28;87155;-53
2023/09/03 01:43:48;;;;;;;;;;;22.90;51.50;;;;;;4993679;28;87715;-54
2023/09/03 01:46:26;;;;;;;;;;;22.90;51.60;;;;;;4994820;28;88337;-51
2023/09/03 01:49:10;;;;;;;;;;;22.90;51.60;;;;;;4994279;28;86366;-49
2023/09/03 01:51:38;;;;;;;;;;;22.80;51.60;;;;;;4990999;28;87001;-53
2023/09/03 01:54:19;;;;;;;;;;;22.80;51.60;;;;;;4994575;28;88551;-53
2023/09/03 01:56:56;;;;;;;;;;;22.80;51.60;;;;;;4993081;28;88872;-51
2023/09/03 01:59:24;;;;;;;;;;;22.80;51.60;;;;;;4995291;28;88378;-48
2023/09/03 02:01:51;;;;;;;;;;;22.80;51.60;;;;;;4992111;28;87191;-50
2023/09/03 02:04:17;;;;;;;;;;;22.80;51.60;;;;;;4993203;28;87623;-50
2023/09/03 02:06:48;;;;;;;;;;;22.80;51.60;;;;;;4994183;28;87835;-51
2023/09/03 02:09:14;;;;;;;;;;;22.80;51.60;;;;;;4993161;28;87121;-49
2023/09/03 02:11:40;;;;;;;;;;;22.70;51.60;;;;;;4992899;28;89154;-52
2023/09/03 02:14:05;;;;;;;;;;;22.80;51.70;;;;;;4994390;28;87317;-51
2023/09/03 02:16:31;;;;;;;;;;;22.70;51.60;;;;;;4993117;28;87194;-49
2023/09/03 02:18:56;;;;;;;;;;;22.70;51.70;;;;;;4992248;28;87435;-52
2023/09/03 02:21:22;;;;;;;;;;;22.70;51.60;;;;;;4994029;28;89046;-49
2023/09/03 02:23:47;;;;;;;;;;;22.70;51.60;;;;;;4993471;28;88958;-52
2023/09/03 02:26:13;;;;;;;;;;;22.70;51.60;;;;;;4994100;28;88238;-54
2023/09/03 02:28:40;;;;;;;;;;;22.70;51.60;;;;;;4991176;28;87194;-48
2023/09/03 02:31:06;;;;;;;;;;;22.60;51.60;;;;;;4992941;28;87952;-49
2023/09/03 02:33:31;;;;;;;;;;;22.70;51.60;;;;;;4994234;28;88362;-53
2023/09/03 02:35:57;;;;;;;;;;;22.60;51.60;;;;;;4990629;28;87869;-48
2023/09/03 02:38:22;;;;;;;;;;;22.60;51.70;;;;;;4993492;28;87469;-48
2023/09/03 02:40:48;;;;;;;;;;;22.60;51.70;;;;;;4991487;28;87051;-49
2023/09/03 02:43:14;;;;;;;;;;;22.60;51.70;;;;;;4995390;28;87144;-48
2023/09/03 02:45:40;;;;;;;;;;;22.60;51.70;;;;;;4991710;28;90175;-51
2023/09/03 02:48:06;;;;;;;;;;;22.60;51.60;;;;;;4994289;28;87423;-48
2023/09/03 02:50:34;;;;;;;;;;;22.50;51.70;;;;;;4991980;28;89531;-53
2023/09/03 02:52:59;;;;;;;;;;;22.50;51.70;;;;;;4990984;28;88154;-54
2023/09/03 02:55:25;;;;;;;;;;;22.50;51.70;;;;;;4991555;28;87328;-49
2023/09/03 02:57:50;;;;;;;;;;;22.50;51.70;;;;;;4992725;28;88315;-48
2023/09/03 03:00:18;;;;;;;;;;;22.50;51.70;;;;;;4993172;28;87433;-54
2023/09/03 03:02:43;;;;;;;;;;;22.50;51.70;;;;;;4991946;28;86456;-52
2023/09/03 03:05:09;;;;;;;;;;;22.50;51.70;;;;;;4995534;28;87041;-54
2023/09/03 03:07:37;;;;;;;;;;;22.40;51.70;;;;;;4989989;28;87108;-51
2023/09/03 03:10:03;;;;;;;;;;;22.40;51.70;;;;;;4990250;28;88712;-47
2023/09/03 03:12:29;;;;;;;;;;;22.40;51.70;;;;;;4998459;28;92077;-52
2023/09/03 03:14:54;;;;;;;;;;;22.40;51.80;;;;;;4994539;28;87094;-53
2023/09/03 03:17:20;;;;;;;;;;;22.40;51.80;;;;;;4991351;28;87271;-50
2023/09/03 03:19:49;;;;;;;;;;;22.40;51.80;;;;;;4992011;28;87440;-51
2023/09/03 03:22:15;;;;;;;;;;;22.40;51.70;;;;;;4993091;28;87332;-52
2023/09/03 03:24:40;;;;;;;;;;;22.30;51.70;;;;;;4994361;28;87525;-51
2023/09/03 03:27:06;;;;;;;;;;;22.30;51.70;;;;;;4992372;28;86735;-49
2023/09/03 03:29:32;;;;;;;;;;;22.30;51.70;;;;;;4993354;28;88083;-54
2023/09/03 03:31:58;;;;;;;;;;;22.30;51.70;;;;;;4993052;28;89280;-53
2023/09/03 03:34:25;;;;;;;;;;;22.30;51.80;;;;;;4990895;28;88056;-55
2023/09/03 03:36:51;;;;;;;;;;;22.30;51.80;;;;;;4990480;28;90037;-52
2023/09/03 03:39:16;;;;;;;;;;;22.30;51.80;;;;;;4992386;28;88031;-47
2023/09/03 03:41:42;;;;;;;;;;;22.30;51.80;;;;;;4993058;28;87089;-48
2023/09/03 03:44:07;;;;;;;;;;;22.20;51.80;;;;;;4991620;28;87643;-47
2023/09/03 03:46:33;;;;;;;;;;;22.20;51.90;;;;;;4994150;28;90024;-51
2023/09/03 03:48:59;;;;;;;;;;;22.20;51.80;;;;;;4990756;28;87514;-50
2023/09/03 03:51:25;;;;;;;;;;;22.20;51.90;;;;;;4994810;28;87434;-53
2023/09/03 03:53:51;;;;;;;;;;;22.20;51.90;;;;;;4989778;28;87179;-51
2023/09/03 03:56:16;;;;;;;;;;;22.20;51.90;;;;;;4988224;28;88038;-54
2023/09/03 03:58:42;;;;;;;;;;;22.20;51.90;;;;;;4988875;28;89232;-52
2023/09/03 04:01:11;;;;;;;;;;;22.10;51.90;;;;;;4992140;28;87182;-53
2023/09/03 04:03:37;;;;;;;;;;;22.10;51.90;;;;;;4993234;28;87755;-51
2023/09/03 04:06:02;;;;;;;;;;;22.10;51.90;;;;;;4989175;28;88392;-52
2023/09/03 04:08:30;;;;;;;;;;;22.10;51.90;;;;;;4991978;28;87207;-51
2023/09/03 04:10:56;;;;;;;;;;;22.10;51.90;;;;;;4992618;28;88261;-48
2023/09/03 04:13:22;;;;;;;;;;;22.00;52.00;;;;;;4989965;28;87129;-55
2023/09/03 04:15:48;;;;;;;;;;;22.10;52.00;;;;;;4993985;28;87584;-51
2023/09/03 04:18:13;;;;;;;;;;;22.00;52.00;;;;;;4991012;28;88338;-52
2023/09/03 04:20:38;;;;;;;;;;;22.00;52.00;;;;;;4995705;28;87214;-48
2023/09/03 04:23:04;;;;;;;;;;;22.00;52.00;;;;;;4991887;28;88255;-52
2023/09/03 04:25:29;;;;;;;;;;;22.00;52.10;;;;;;4996221;28;87525;-50
2023/09/03 04:27:55;;;;;;;;;;;22.00;52.00;;;;;;4992418;28;87172;-52
2023/09/03 04:30:20;;;;;;;;;;;22.00;52.00;;;;;;4999766;28;87569;-53
2023/09/03 04:32:46;;;;;;;;;;;22.00;52.00;;;;;;4993337;28;87261;-52
2023/09/03 04:35:12;;;;;;;;;;;21.90;52.10;;;;;;4992427;28;87917;-49
2023/09/03 04:37:37;;;;;;;;;;;21.90;51.50;;;;;;4991738;28;88141;-50
2023/09/03 04:40:03;;;;;;;;;;;22.00;52.10;;;;;;4996485;28;86503;-53
2023/09/03 04:42:29;;;;;;;;;;;21.90;52.00;;;;;;4991868;28;87270;-48
2023/09/03 04:44:54;;;;;;;;;;;21.90;52.10;;;;;;4989411;28;88600;-50
2023/09/03 04:47:20;;;;;;;;;;;21.90;52.10;;;;;;4992442;28;88178;-51
2023/09/03 04:49:45;;;;;;;;;;;21.90;52.10;;;;;;4995640;28;88738;-50
2023/09/03 04:52:11;;;;;;;;;;;21.90;52.10;;;;;;4998543;28;88865;-48
2023/09/03 04:54:36;;;;;;;;;;;21.90;52.10;;;;;;4992733;28;88114;-54
2023/09/03 04:57:02;;;;;;;;;;;21.90;52.10;;;;;;4993534;28;89419;-55
2023/09/03 04:59:28;;;;;;;;;;;21.80;52.20;;;;;;4994756;28;87137;-51
2023/09/03 05:01:53;;;;;;;;;;;21.80;52.20;;;;;;4992530;28;88375;-51
2023/09/03 05:04:19;;;;;;;;;;;21.80;52.10;;;;;;4993025;28;87547;-52
2023/09/03 05:06:45;;;;;;;;;;;21.80;52.10;;;;;;4994896;28;87009;-49
2023/09/03 05:09:10;;;;;;;;;;;21.80;52.20;;;;;;4992806;28;87100;-52
2023/09/03 05:11:36;;;;;;;;;;;21.80;52.20;;;;;;4990100;28;89285;-49
2023/09/03 05:14:02;;;;;;;;;;;21.80;52.20;;;;;;4993800;28;88863;-49
2023/09/03 05:16:27;;;;;;;;;;;21.80;52.20;;;;;;4992505;28;89582;-52
2023/09/03 05:18:53;;;;;;;;;;;21.70;52.20;;;;;;4996346;28;87962;-51
2023/09/03 05:21:19;;;;;;;;;;;21.70;52.20;;;;;;4994911;28;89274;-50
2023/09/03 05:23:45;;;;;;;;;;;21.80;52.20;;;;;;4991092;28;88132;-51
2023/09/03 05:26:10;;;;;;;;;;;21.80;52.20;;;;;;4993811;28;87288;-51
2023/09/03 05:28:36;;;;;;;;;;;21.70;52.20;;;;;;4997015;28;87641;-53
2023/09/03 05:31:01;;;;;;;;;;;21.70;52.20;;;;;;4990935;28;88270;-50
2023/09/03 05:33:27;;;;;;;;;;;21.70;52.10;;;;;;4994577;28;87061;-52
2023/09/03 05:35:52;;;;;;;;;;;21.80;52.20;;;;;;4993348;28;89145;-50
2023/09/03 05:38:18;;;;;;;;;;;21.70;52.30;;;;;;4993168;28;89018;-53
2023/09/03 05:40:43;;;;;;;;;;;21.70;52.30;;;;;;4998284;28;87896;-47
2023/09/03 05:43:09;;;;;;;;;;;21.70;52.30;;;;;;4992520;28;88221;-46
2023/09/03 05:45:34;;;;;;;;;;;21.70;52.30;;;;;;4997001;28;87201;-53
2023/09/03 05:48:00;;;;;;;;;;;21.70;52.30;;;;;;4984274;28;87986;-54
2023/09/03 05:50:29;;;;;;;;;;;21.70;52.30;;;;;;4991315;28;88904;-49
2023/09/03 05:52:54;;;;;;;;;;;21.70;52.30;;;;;;4992987;28;86296;-50
2023/09/03 05:55:20;;;;;;;;;;;21.70;52.40;;;;;;4998457;28;87966;-53
2023/09/03 05:57:46;;;;;;;;;;;21.70;52.30;;;;;;4988524;28;87136;-49
2023/09/03 06:00:11;;;;;;;;;;;21.70;52.40;;;;;;4998028;28;87940;-51
2023/09/03 06:02:38;;;;;;;;;;;21.70;52.40;;;;;;4993610;28;87695;-50
2023/09/03 06:05:04;;;;;;;;;;;21.70;52.40;;;;;;4993813;28;87629;-49
2023/09/03 06:07:29;;;;;;;;;;;21.70;52.40;;;;;;4989079;28;87702;-52
2023/09/03 06:09:55;;;;;;;;;;;21.70;52.40;;;;;;4989712;28;88062;-46
2023/09/03 06:12:20;;;;;;;;;;;21.70;52.40;;;;;;4994539;28;87086;-52
2023/09/03 06:14:46;;;;;;;;;;;21.60;52.40;;;;;;4992078;28;87700;-51
2023/09/03 06:17:11;;;;;;;;;;;21.70;52.50;;;;;;4991358;28;87617;-48
2023/09/03 06:19:37;;;;;;;;;;;21.70;52.40;;;;;;4991374;28;87104;-49
2023/09/03 06:22:02;;;;;;;;;;;21.70;52.40;;;;;;4995293;28;88370;-53
2023/09/03 06:24:28;;;;;;;;;;;21.70;52.50;;;;;;4993941;28;88227;-51
2023/09/03 06:26:53;;;;;;;;;;;21.70;52.50;;;;;;4994054;28;88563;-50
2023/09/03 06:29:19;;;;;;;;;;;21.70;52.40;;;;;;4993411;28;88376;-50
2023/09/03 06:31:44;;;;;;;;;;;21.70;52.50;;;;;;4995770;28;87184;-47
2023/09/03 06:34:10;;;;;;;;;;;21.70;52.50;;;;;;4990586;28;87808;-50
2023/09/03 06:36:36;;;;;;;;;;;21.70;52.60;;;;;;4989501;28;88262;-50
2023/09/03 06:39:02;;;;;;;;;;;21.70;52.50;;;;;;4993317;28;87221;-50
2023/09/03 06:41:28;;;;;;;;;;;21.70;52.60;;;;;;4994966;28;87840;-51
2023/09/03 06:43:54;;;;;;;;;;;21.60;52.50;;;;;;4995145;28;88848;-51
2023/09/03 06:46:19;;;;;;;;;;;21.70;52.60;;;;;;4990384;28;88906;-50
2023/09/03 06:48:45;;;;;;;;;;;21.70;52.70;;;;;;4990038;28;89610;-52
2023/09/03 06:51:10;;;;;;;;;;;21.70;52.60;;;;;;4992746;28;87661;-50
2023/09/03 06:53:36;;;;;;;;;;;21.70;52.70;;;;;;4989116;28;87814;-54
2023/09/03 06:56:02;;;;;;;;;;;21.70;53.30;;;;;;4992752;28;88643;-51
2023/09/03 06:58:27;;;;;;;;;;;21.70;52.70;;;;;;4992116;28;87074;-49
2023/09/03 07:00:53;;;;;;;;;;;21.70;52.70;;;;;;4996990;28;87599;-54
2023/09/03 07:03:18;;;;;;;;;;;21.70;52.70;;;;;;4987460;28;87902;-50
2023/09/03 07:05:44;;;;;;;;;;;21.70;52.70;;;;;;4990666;28;88091;-48
2023/09/03 07:08:09;;;;;;;;;;;21.70;52.80;;;;;;4994145;28;88185;-56
2023/09/03 07:10:36;;;;;;;;;;;21.70;52.80;;;;;;4990872;28;87169;-52
2023/09/03 07:13:02;;;;;;;;;;;21.70;52.80;;;;;;4988285;28;88514;-52
2023/09/03 07:15:27;;;;;;;;;;;21.70;52.80;;;;;;4991156;28;88362;-54
2023/09/03 07:17:53;;;;;;;;;;;21.70;52.80;;;;;;4995428;28;87191;-49
2023/09/03 07:20:18;;;;;;;;;;;21.70;52.90;;;;;;4993786;28;87597;-49
2023/09/03 07:22:44;;;;;;;;;;;21.70;52.80;;;;;;4990566;28;87118;-49
2023/09/03 07:25:10;;;;;;;;;;;21.70;52.80;;;;;;4992778;28;87762;-50
2023/09/03 07:27:38;;;;;;;;;;;21.70;52.90;;;;;;4990804;28;88282;-51
2023/09/03 07:30:05;;;;;;;;;;;21.70;52.90;;;;;;4990859;28;87255;-51
2023/09/03 07:32:30;;;;;;;;;;;21.70;52.80;;;;;;4991290;28;88654;-50
2023/09/03 07:34:56;;;;;;;;;;;21.70;52.90;;;;;;4993306;28;87974;-52
2023/09/03 07:37:22;;;;;;;;;;;21.70;52.90;;;;;;4991415;28;88387;-49
2023/09/03 07:39:47;;;;;;;;;;;21.70;52.90;;;;;;4986445;28;87647;-50
2023/09/03 07:42:13;;;;;;;;;;;21.70;52.90;;;;;;4992203;28;88145;-51
2023/09/03 07:44:39;;;;;;;;;;;21.70;53.00;;;;;;4994429;28;87107;-50
2023/09/03 07:47:05;;;;;;;;;;;21.70;52.90;;;;;;4991606;28;88196;-52
2023/09/03 07:49:30;;;;;;;;;;;21.70;52.90;;;;;;4993874;28;87115;-51
2023/09/03 07:51:56;;;;;;;;;;;21.70;52.90;;;;;;4996594;28;87992;-48
2023/09/03 07:54:21;;;;;;;;;;;21.70;53.00;;;;;;4993995;28;87056;-47
2023/09/03 07:56:47;;;;;;;;;;;21.70;52.90;;;;;;4992604;28;87115;-49
2023/09/03 07:59:12;;;;;;;;;;;21.70;52.90;;;;;;4991493;28;87763;-52
2023/09/03 08:01:39;;;;;;;;;;;21.70;53.00;;;;;;4993600;28;89219;-47
2023/09/03 08:04:05;;;;;;;;;;;21.70;53.00;;;;;;5000342;28;87129;-51
2023/09/03 08:06:30;;;;;;;;;;;21.70;53.00;;;;;;4995793;28;88243;-53
2023/09/03 08:08:56;;;;;;;;;;;21.70;53.00;;;;;;4993662;28;87167;-52
2023/09/03 08:11:21;;;;;;;;;;;21.70;53.00;;;;;;4993726;28;87639;-53
2023/09/03 08:13:51;;;;;;;;;;;21.70;52.90;;;;;;4992503;28;89435;-49
2023/09/03 08:16:17;;;;;;;;;;;21.70;53.00;;;;;;4994266;28;87116;-50
2023/09/03 08:18:42;;;;;;;;;;;21.70;52.90;;;;;;4993307;28;88262;-54
2023/09/03 08:21:08;;;;;;;;;;;21.70;52.90;;;;;;4995707;28;88036;-51
2023/09/03 08:23:33;;;;;;;;;;;21.80;53.10;;;;;;4993311;28;87263;-51
2023/09/03 08:25:59;;;;;;;;;;;21.80;53.10;;;;;;4993071;28;88703;-51
2023/09/03 08:28:24;;;;;;;;;;;21.80;52.90;;;;;;4996425;28;87278;-50
2023/09/03 08:30:50;;;;;;;;;;;21.80;53.70;;;;;;4994414;28;87187;-51
2023/09/03 08:33:15;;;;;;;;;;;21.80;53.00;;;;;;4992662;28;88023;-50
2023/09/03 08:35:41;;;;;;;;;;;21.80;53.00;;;;;;4992082;28;87170;-50
2023/09/03 08:38:07;;;;;;;;;;;21.80;53.00;;;;;;4994896;28;87213;-48
2023/09/03 08:40:36;;;;;;;;;;;21.80;52.90;;;;;;4996784;28;88451;-53
2023/09/03 08:43:04;;;;;;;;;;;21.80;52.90;;;;;;4996896;28;86438;-48
2023/09/03 08:45:31;;;;;;;;;;;21.80;52.90;;;;;;4991164;28;87122;-51
2023/09/03 08:47:57;;;;;;;;;;;21.80;52.90;;;;;;4998620;28;88528;-52
2023/09/03 08:50:23;;;;;;;;;;;21.80;52.80;;;;;;4994720;28;88038;-48
2023/09/03 08:52:49;;;;;;;;;;;21.80;52.80;;;;;;4992997;28;88113;-51
2023/09/03 08:55:14;;;;;;;;;;;21.80;52.90;;;;;;4993546;28;87270;-49
2023/09/03 08:57:41;;;;;;;;;;;21.80;52.80;;;;;;4994838;28;89280;-52
2023/09/03 09:00:07;;;;;;;;;;;21.80;52.80;;;;;;4987886;28;88454;-52
2023/09/03 09:02:34;;;;;;;;;;;21.80;52.70;;;;;;4991320;28;87134;-50
2023/09/03 09:05:00;;;;;;;;;;;21.90;52.80;;;;;;4993245;28;89179;-48
2023/09/03 09:07:26;;;;;;;;;;;21.90;52.80;;;;;;4996883;28;87674;-53
2023/09/03 09:09:52;;;;;;;;;;;21.90;52.70;;;;;;4992731;28;87151;-53
2023/09/03 09:12:23;;;;;;;;;;;21.90;52.60;;;;;;4993288;28;88470;-51
2023/09/03 09:14:53;;;;;;;;;;;21.90;52.60;;;;;;4991961;28;88585;-49
2023/09/03 09:17:18;;;;;;;;;;;21.90;52.50;;;;;;4991981;28;90239;-51
2023/09/03 09:19:44;;;;;;;;;;;21.90;52.50;;;;;;4991230;28;87906;-50
2023/09/03 09:22:10;;;;;;;;;;;22.00;52.60;;;;;;4996714;28;87139;-52
2023/09/03 09:24:42;;;;;;;;;;;22.00;52.70;;;;;;4993333;28;89363;-54
2023/09/03 09:27:15;;;;;;;;;;;22.00;52.80;;;;;;4989787;28;89273;-52
2023/09/03 09:29:41;;;;;;;;;;;22.00;52.80;;;;;;4992923;28;88939;-53
2023/09/03 09:32:23;;;;;;;;;;;22.00;52.70;;;;;;4993102;28;87575;-47
2023/09/03 09:34:48;;;;;;;;;;;22.00;52.60;;;;;;4994595;28;87813;-50
2023/09/03 09:37:15;;;;;;;;;;;22.00;52.70;;;;;;4993564;28;87708;-54
2023/09/03 09:39:45;;;;;;;;;;;22.00;52.70;;;;;;4990602;28;88708;-47
2023/09/03 09:42:13;;;;;;;;;;;22.00;52.70;;;;;;4991622;28;87228;-52
2023/09/03 09:44:54;;;;;;;;;;;22.10;52.80;;;;;;4995247;28;89308;-48
2023/09/03 09:47:20;;;;;;;;;;;22.10;52.90;;;;;;4992407;28;88582;-48
2023/09/03 09:49:46;;;;;;;;;;;22.10;52.70;;;;;;4990909;28;87382;-54
2023/09/03 09:52:12;;;;;;;;;;;22.10;52.70;;;;;;4995492;28;88897;-55
2023/09/03 09:54:39;;;;;;;;;;;22.10;52.70;;;;;;4995348;28;87595;-48
2023/09/03 09:57:11;;;;;;;;;;;22.10;52.50;;;;;;4990216;28;89100;-51
2023/09/03 09:59:39;;;;;;;;;;;22.20;52.70;;;;;;4993873;28;88587;-52
2023/09/03 10:02:15;;;;;;;;;;;22.10;52.70;;;;;;4993510;28;87245;-49
2023/09/03 10:04:44;;;;;;;;;;;22.20;52.60;;;;;;4988481;28;88059;-48
2023/09/03 10:07:10;;;;;;;;;;;22.20;52.60;;;;;;4991815;28;88480;-50
2023/09/03 10:09:37;;;;;;;;;;;22.20;52.50;;;;;;4994037;28;87115;-49
2023/09/03 10:12:03;;;;;;;;;;;22.20;52.60;;;;;;4995164;28;88091;-52
2023/09/03 10:14:28;;;;;;;;;;;22.20;53.20;;;;;;4992010;28;88436;-52
2023/09/03 10:16:55;;;;;;;;;;;22.30;52.60;;;;;;4991631;28;89194;-50
2023/09/03 10:19:23;;;;;;;;;;;22.30;52.80;;;;;;4999442;28;89916;-52
2023/09/03 10:21:49;;;;;;;;;;;22.30;52.60;;;;;;4991153;28;86603;-52
2023/09/03 10:24:16;;;;;;;;;;;22.30;52.50;;;;;;4986790;28;87874;-52
2023/09/03 10:26:44;;;;;;;;;;;22.30;52.50;;;;;;4990612;28;89381;-50
2023/09/03 10:29:11;;;;;;;;;;;22.30;52.50;;;;;;4993417;28;88110;-48
2023/09/03 10:31:38;;;;;;;;;;;22.40;52.50;;;;;;4991580;28;90527;-51
2023/09/03 10:34:23;;;;;;;;;;;22.40;52.50;;;;;;4986499;28;88406;-51
2023/09/03 10:37:05;;;;;;;;;;;22.40;52.50;;;;;;4995444;28;87132;-49
2023/09/03 10:39:31;;;;;;;;;;;22.40;52.50;;;;;;4996296;28;87974;-52
2023/09/03 10:42:15;;;;;;;;;;;22.40;52.50;;;;;;4992866;28;87298;-48
2023/09/03 10:44:50;;;;;;;;;;;22.50;52.60;;;;;;4993841;28;87785;-52
2023/09/03 10:47:19;;;;;;;;;;;22.50;52.50;;;;;;4994189;28;87517;-51
2023/09/03 10:49:46;;;;;;;;;;;22.50;52.60;;;;;;4996008;28;87122;-51
2023/09/03 10:52:34;;;;;;;;;;;22.50;52.50;;;;;;4988066;28;87235;-52
2023/09/03 10:55:09;;;;;;;;;;;22.50;52.50;;;;;;4991738;28;89431;-51
2023/09/03 10:57:34;;;;;;;;;;;22.60;52.50;;;;;;4989074;28;87376;-51
2023/09/03 11:00:09;;;;;;;;;;;22.60;52.50;;;;;;4992262;28;89043;-54
2023/09/03 11:02:35;;;;;;;;;;;22.60;52.50;;;;;;4990763;28;87087;-49
2023/09/03 11:05:09;;;;;;;;;;;22.60;52.50;;;;;;4992730;28;87735;-52
2023/09/03 11:07:35;;;;;;;;;;;22.60;52.40;;;;;;4991262;28;88202;-51
2023/09/03 11:10:19;;;;;;;;;;;22.60;52.40;;;;;;4994280;28;87723;-51
2023/09/03 11:12:45;;;;;;;;;;;22.60;52.40;;;;;;4993041;28;86863;-49
2023/09/03 11:15:11;;;;;;;;;;;22.60;52.40;;;;;;4992654;28;89323;-50
2023/09/03 11:17:36;;;;;;;;;;;22.70;52.50;;;;;;5008956;28;89219;-54
2023/09/03 11:20:02;;;;;;;;;;;22.70;52.40;;;;;;4990475;28;88852;-53
2023/09/03 11:22:32;;;;;;;;;;;22.70;52.30;;;;;;4996210;28;87502;-50
2023/09/03 11:24:57;;;;;;;;;;;22.70;52.30;;;;;;4991903;28;88142;-53
2023/09/03 11:27:23;;;;;;;;;;;22.80;52.30;;;;;;4993414;28;88151;-52
2023/09/03 11:29:48;;;;;;;;;;;22.80;52.30;;;;;;4990385;28;87267;-50
2023/09/03 11:32:14;;;;;;;;;;;22.80;52.40;;;;;;4992795;28;87874;-49
2023/09/03 11:34:39;;;;;;;;;;;22.80;52.30;;;;;;4991652;28;88202;-52
2023/09/03 11:37:05;;;;;;;;;;;22.80;52.20;;;;;;4988374;28;86544;-51
2023/09/03 11:39:31;;;;;;;;;;;22.90;52.30;;;;;;4991757;28;87417;-49
2023/09/03 11:41:56;;;;;;;;;;;22.90;52.30;;;;;;4995480;28;88309;-48
2023/09/03 11:44:23;;;;;;;;;;;22.90;52.30;;;;;;4990461;28;88763;-52
2023/09/03 11:47:02;;;;;;;;;;;22.90;52.20;;;;;;4989081;28;88855;-52
2023/09/03 11:49:27;;;;;;;;;;;22.90;52.20;;;;;;4990629;28;87095;-51
2023/09/03 11:51:53;;;;;;;;;;;23.00;52.20;;;;;;4993224;28;88853;-51
2023/09/03 11:54:23;;;;;;;;;;;23.00;52.20;;;;;;4988202;28;88189;-49
2023/09/03 11:56:48;;;;;;;;;;;23.00;52.20;;;;;;4989328;28;87450;-51
2023/09/03 11:59:14;;;;;;;;;;;23.00;52.20;;;;;;4989551;28;87334;-50
2023/09/03 12:01:39;;;;;;;;;;;23.00;52.20;;;;;;4991423;28;89523;-53
2023/09/03 12:04:05;;;;;;;;;;;23.10;52.20;;;;;;4991739;28;87119;-55
2023/09/03 12:06:34;;;;;;;;;;;23.10;52.20;;;;;;4989908;28;88510;-47
2023/09/03 12:08:59;;;;;;;;;;;23.10;52.10;;;;;;4989578;28;88105;-51
2023/09/03 12:11:29;;;;;;;;;;;23.10;52.00;;;;;;4993101;28;88681;-51
2023/09/03 12:13:54;;;;;;;;;;;23.10;52.00;;;;;;4994322;28;87854;-52
2023/09/03 12:16:22;;;;;;;;;;;23.10;51.90;;;;;;4992195;28;87114;-50
2023/09/03 12:18:56;;;;;;;;;;;23.10;51.90;;;;;;4990902;28;88113;-50
2023/09/03 12:21:30;;;;;;;;;;;23.20;51.90;;;;;;4992379;28;90013;-54
2023/09/03 12:23:55;;;;;;;;;;;23.20;51.90;;;;;;4990850;28;87116;-49
2023/09/03 12:26:23;;;;;;;;;;;23.20;51.80;;;;;;4992518;28;87542;-49
2023/09/03 12:28:49;;;;;;;;;;;23.20;51.80;;;;;;4992403;28;87104;-53
2023/09/03 12:31:15;;;;;;;;;;;23.20;51.70;;;;;;4989976;28;88006;-52
2023/09/03 12:33:45;;;;;;;;;;;23.30;51.80;;;;;;4988140;28;90371;-47
2023/09/03 12:36:13;;;;;;;;;;;23.30;51.80;;;;;;4993250;28;87132;-51
2023/09/03 12:38:58;;;;;;;;;;;23.30;51.70;;;;;;4995694;28;87910;-50
2023/09/03 12:41:32;;;;;;;;;;;23.30;51.70;;;;;;4995515;28;87099;-49
2023/09/03 12:44:08;;;;;;;;;;;23.30;51.60;;;;;;4992030;28;87131;-49
2023/09/03 12:46:34;;;;;;;;;;;23.40;51.60;;;;;;4995745;28;87723;-53
2023/09/03 12:49:00;;;;;;;;;;;23.40;51.60;;;;;;4998301;28;89809;-50
2023/09/03 12:51:26;;;;;;;;;;;23.40;51.50;;;;;;4993546;28;89229;-52
2023/09/03 12:53:51;;;;;;;;;;;23.40;51.40;;;;;;5006984;28;91006;-48
2023/09/03 12:56:17;;;;;;;;;;;23.40;51.50;;;;;;4995249;28;87178;-51
2023/09/03 12:58:43;;;;;;;;;;;23.40;51.40;;;;;;4993577;28;89357;-49
2023/09/03 13:01:09;;;;;;;;;;;23.40;51.40;;;;;;4988361;28;89429;-53
2023/09/03 13:03:35;;;;;;;;;;;23.50;51.30;;;;;;4992640;28;87073;-53
2023/09/03 13:06:00;;;;;;;;;;;23.50;51.20;;;;;;4996594;28;87825;-52
2023/09/03 13:08:26;;;;;;;;;;;23.50;51.10;;;;;;4995688;28;88098;-52
2023/09/03 13:10:51;;;;;;;;;;;23.50;51.00;;;;;;4992969;28;88699;-51
2023/09/03 13:13:17;;;;;;;;;;;23.60;51.10;;;;;;4991632;28;87779;-48
2023/09/03 13:15:44;;;;;;;;;;;23.60;51.10;;;;;;4995631;28;86351;-50
2023/09/03 13:18:09;;;;;;;;;;;23.60;51.00;;;;;;4994435;28;87155;-48
2023/09/03 13:20:35;;;;;;;;;;;23.60;50.90;;;;;;4996606;28;87159;-49
2023/09/03 13:23:00;;;;;;;;;;;23.60;50.80;;;;;;4992834;28;88140;-52
2023/09/03 13:25:26;;;;;;;;;;;23.60;50.70;;;;;;4991355;28;88775;-50
2023/09/03 13:27:52;;;;;;;;;;;23.70;51.40;;;;;;4996491;28;89386;-51
2023/09/03 13:30:17;;;;;;;;;;;23.70;50.70;;;;;;4992341;28;86999;-48
2023/09/03 13:32:43;;;;;;;;;;;23.70;50.70;;;;;;4996807;28;87986;-53
2023/09/03 13:35:09;;;;;;;;;;;23.70;50.50;;;;;;4994572;28;89427;-54
2023/09/03 13:37:35;;;;;;;;;;;23.80;50.50;;;;;;4990381;28;87589;-53
2023/09/03 13:40:01;;;;;;;;;;;23.80;50.40;;;;;;4993223;28;87463;-49
2023/09/03 13:42:26;;;;;;;;;;;23.80;50.30;;;;;;4996240;28;87170;-52
2023/09/03 13:44:54;;;;;;;;;;;23.80;50.30;;;;;;4995708;28;87873;-50
2023/09/03 13:47:20;;;;;;;;;;;23.90;50.20;;;;;;4987128;28;89698;-50
2023/09/03 13:49:46;;;;;;;;;;;23.90;50.20;;;;;;4991916;28;86768;-52
2023/09/03 13:52:12;;;;;;;;;;;23.90;50.10;;;;;;4998831;28;87175;-51
2023/09/03 13:54:37;;;;;;;;;;;24.00;50.20;;;;;;4996992;28;88303;-51
2023/09/03 13:57:03;;;;;;;;;;;24.00;50.10;;;;;;4989597;28;88200;-47
2023/09/03 13:59:28;;;;;;;;;;;24.00;50.00;;;;;;4991339;28;88880;-50
2023/09/03 14:01:54;;;;;;;;;;;24.00;50.00;;;;;;4997651;28;87619;-53
2023/09/03 14:04:19;;;;;;;;;;;24.00;50.00;;;;;;4989294;28;87023;-53
2023/09/03 14:06:45;;;;;;;;;;;24.10;50.40;;;;;;4990342;28;88148;-53
2023/09/03 14:09:11;;;;;;;;;;;24.10;49.90;;;;;;4993705;28;87084;-50
2023/09/03 14:11:38;;;;;;;;;;;24.10;49.80;;;;;;4994985;28;89074;-51
2023/09/03 14:14:06;;;;;;;;;;;24.20;49.90;;;;;;4994057;28;89848;-48